Time;durP1;ratioP1;P1;durP2;ratioP2;P2;SDS_P1;SDS_P2;PMS_P1;PMS_P2;Temp;Humidity;BMP_temperature;BMP_pressure;BME280_temperature;BME280_humidity;BME280_pressure;Samples;Min_cycle;Max_cycle;Signal;HPM_P1;HPM_P2
2023/04/09 00:01:15;;;;;;;12.75;5.30;;;;;;;10.55;57.05;101209.59;10175945;29;20400;-69
2023/04/09 00:06:16;;;;;;;11.55;5.53;;;;;;;10.51;57.36;101208.22;10191212;29;20075;-69
2023/04/09 00:11:18;;;;;;;11.45;5.53;;;;;;;10.46;57.52;101208.66;10167095;29;20086;-70
2023/04/09 00:16:19;;;;;;;9.32;5.22;;;;;;;10.41;57.91;101205.59;10183941;29;20063;-71
2023/04/09 00:21:21;;;;;;;9.50;5.57;;;;;;;10.29;58.00;101198.75;10181379;29;20119;-69
2023/04/09 00:26:22;;;;;;;10.35;5.60;;;;;;;10.23;58.20;101202.03;10186129;29;20044;-69
2023/04/09 00:31:24;;;;;;;11.07;6.00;;;;;;;10.21;58.32;101202.19;10189263;29;20047;-65
2023/04/09 00:36:25;;;;;;;11.13;5.72;;;;;;;10.16;58.45;101195.59;10226157;29;20135;-64
2023/04/09 00:41:27;;;;;;;13.57;5.97;;;;;;;10.10;58.75;101191.66;10223851;29;20044;-64
2023/04/09 00:46:30;;;;;;;9.88;5.90;;;;;;;10.09;58.80;101176.53;10220158;29;20056;-64
2023/04/09 00:51:32;;;;;;;12.05;5.57;;;;;;;10.00;58.90;101177.47;10222477;29;20096;-63
2023/04/09 00:56:35;;;;;;;11.05;6.30;;;;;;;9.90;59.41;101177.53;10208516;29;20044;-64
2023/04/09 01:01:36;;;;;;;12.00;6.38;;;;;;;9.91;59.32;101179.19;10231109;29;20050;-64
2023/04/09 01:06:52;;;;;;;11.13;6.55;;;;;;;9.84;59.45;101183.50;10228349;29;20048;-64
2023/04/09 01:12:30;;;;;;;11.20;6.70;;;;;;;9.88;59.26;101179.50;10228440;29;20043;-65
2023/04/09 01:17:54;;;;;;;10.98;5.88;;;;;;;9.80;59.54;101184.81;10232242;29;20046;-64
2023/04/09 01:23:33;;;;;;;15.48;7.47;;;;;;;9.72;59.81;101183.69;10225972;29;20072;-64
2023/04/09 01:28:40;;;;;;;18.15;7.65;;;;;;;9.69;59.71;101183.97;10226783;29;20127;-64
2023/04/09 01:33:42;;;;;;;13.40;7.15;;;;;;;9.75;59.69;101190.59;10213338;29;20048;-64
2023/04/09 01:38:47;;;;;;;11.80;6.00;;;;;;;9.79;60.01;101189.31;10225995;29;20047;-65
2023/04/09 01:43:50;;;;;;;12.50;6.55;;;;;;;9.80;59.92;101190.16;10227501;29;20052;-64
2023/04/09 01:48:53;;;;;;;13.68;6.60;;;;;;;9.76;60.30;101189.63;10224920;29;20042;-65
2023/04/09 01:53:55;;;;;;;16.20;6.90;;;;;;;9.76;60.44;101188.78;10225777;29;20138;-65
2023/04/09 01:58:56;;;;;;;12.95;6.68;;;;;;;9.71;60.45;101186.53;10225624;29;20047;-64
2023/04/09 02:04:04;;;;;;;13.05;6.85;;;;;;;9.68;60.66;101184.16;10225715;29;20103;-64
2023/04/09 02:09:07;;;;;;;15.70;7.13;;;;;;;9.63;60.68;101189.94;10232404;29;20067;-64
2023/04/09 02:14:11;;;;;;;13.18;6.85;;;;;;;9.59;60.80;101185.03;10220373;29;20048;-64
2023/04/09 02:19:12;;;;;;;12.43;6.45;;;;;;;9.58;60.81;101194.94;10218279;29;20065;-63
2023/04/09 02:24:14;;;;;;;14.80;6.90;;;;;;;9.49;61.14;101195.81;10212646;29;20055;-64
2023/04/09 02:29:15;;;;;;;13.07;7.25;;;;;;;9.51;61.04;101196.53;10220458;29;20091;-65
2023/04/09 02:34:18;;;;;;;15.20;7.32;;;;;;;9.43;61.56;101196.41;10221660;29;20036;-63
2023/04/09 02:39:19;;;;;;;13.70;7.00;;;;;;;9.47;61.25;101193.28;10206523;29;20074;-65
2023/04/09 02:44:21;;;;;;;14.85;7.00;;;;;;;9.47;61.02;101185.22;10223075;29;20542;-64
2023/04/09 02:49:22;;;;;;;11.88;6.15;;;;;;;9.37;61.53;101188.97;10230294;29;20115;-64
2023/04/09 02:54:23;;;;;;;13.55;7.25;;;;;;;9.40;61.41;101191.31;10233397;29;20075;-64
2023/04/09 02:59:25;;;;;;;14.73;7.93;;;;;;;9.41;61.48;101190.34;10233348;29;20123;-65
2023/04/09 03:04:26;;;;;;;13.57;6.82;;;;;;;9.41;61.44;101175.09;10231639;29;20055;-64
2023/04/09 03:09:29;;;;;;;12.82;6.88;;;;;;;9.38;61.86;101175.41;10228584;29;20052;-64
2023/04/09 03:14:30;;;;;;;12.48;6.25;;;;;;;9.37;61.62;101176.38;10232746;29;20095;-65
2023/04/09 03:19:32;;;;;;;13.15;6.50;;;;;;;9.31;62.05;101166.25;10229736;29;20044;-64
2023/04/09 03:24:33;;;;;;;12.55;6.43;;;;;;;9.31;61.92;101172.44;10227055;29;20044;-64
2023/04/09 03:29:35;;;;;;;13.30;6.70;;;;;;;9.39;61.78;101162.81;10234156;29;20043;-64
2023/04/09 03:34:36;;;;;;;10.73;5.97;;;;;;;9.44;61.54;101165.88;10226856;29;20067;-64
2023/04/09 03:39:38;;;;;;;12.25;6.43;;;;;;;9.46;61.72;101155.88;10232201;29;20052;-64
2023/04/09 03:44:39;;;;;;;13.70;6.97;;;;;;;9.47;61.77;101161.06;10225898;29;20056;-64
2023/04/09 03:49:40;;;;;;;14.38;7.03;;;;;;;9.49;61.83;101155.56;10221684;29;20139;-65
2023/04/09 03:54:42;;;;;;;14.13;6.75;;;;;;;9.53;61.92;101159.63;10229532;29;20059;-64
2023/04/09 03:59:44;;;;;;;11.43;6.22;;;;;;;9.57;62.13;101157.50;10229257;29;20056;-64
2023/04/09 04:04:45;;;;;;;13.25;7.35;;;;;;;9.57;61.96;101161.03;10228131;29;20061;-64
2023/04/09 04:09:47;;;;;;;16.45;7.22;;;;;;;9.58;61.74;101159.19;10226170;29;20043;-64
2023/04/09 04:14:48;;;;;;;15.73;6.80;;;;;;;9.58;61.78;101159.19;10227877;28;20198;-65
2023/04/09 04:19:49;;;;;;;15.93;7.70;;;;;;;9.52;62.09;101156.13;10233731;28;20048;-65
2023/04/09 04:24:51;;;;;;;17.58;8.52;;;;;;;9.52;62.48;101155.28;10235812;28;20059;-65
2023/04/09 04:29:52;;;;;;;16.23;8.23;;;;;;;9.53;62.28;101165.00;10233720;29;20043;-65
2023/04/09 04:34:53;;;;;;;13.80;7.55;;;;;;;9.47;62.55;101163.75;10231398;29;20069;-65
2023/04/09 04:39:55;;;;;;;16.45;8.18;;;;;;;9.42;62.82;101162.50;10220663;28;20032;-64
2023/04/09 04:57:07;;;;;;;17.88;7.85;;;;;;;9.49;62.24;101174.34;10191557;28;20056;-93
2023/04/09 05:02:10;;;;;;;14.93;7.85;;;;;;;9.52;62.53;101179.44;10229128;23;20104;-63
2023/04/09 05:07:12;;;;;;;13.48;7.72;;;;;;;9.56;62.36;101175.47;10305725;23;20044;-92
2023/04/09 05:12:16;;;;;;;17.33;8.32;;;;;;;9.59;62.81;101172.47;10203407;28;20032;-93
2023/04/09 05:17:18;;;;;;;14.35;7.57;;;;;;;9.63;62.63;101181.06;10190101;28;20052;-92
2023/04/09 05:22:35;;;;;;;17.90;8.45;;;;;;;9.59;62.88;101180.50;10191835;28;20047;-91
2023/04/09 05:27:51;;;;;;;14.07;7.55;;;;;;;9.61;62.83;101183.06;10210229;28;20040;-93
2023/04/09 05:32:55;;;;;;;16.20;8.07;;;;;;;9.64;62.74;101183.59;10189935;28;20055;-93
2023/04/09 05:37:59;;;;;;;13.40;7.15;;;;;;;9.64;62.60;101183.59;10215157;28;20071;-92
2023/04/09 05:43:01;;;;;;;15.60;8.07;;;;;;;9.64;62.66;101188.13;10194861;28;20056;-92
2023/04/09 05:48:03;;;;;;;14.90;7.97;;;;;;;9.70;62.99;101192.91;10202595;28;20048;-92
2023/04/09 05:53:05;;;;;;;16.23;8.20;;;;;;;9.76;62.95;101197.66;10186650;28;20071;-93
2023/04/09 05:58:07;;;;;;;16.05;8.07;;;;;;;9.78;62.92;101192.16;10204255;28;20028;-92
2023/04/09 06:19:41;;;;;;;12.20;6.80;;;;;;;10.00;63.12;101194.41;10269686;23;20105;-93
2023/04/09 06:51:30;;;;;;;15.98;9.18;;;;;;;10.74;62.04;101205.88;10280714;23;20071;-57
2023/04/09 06:56:33;;;;;;;15.40;8.95;;;;;;;10.87;62.27;101211.69;10209400;29;20160;-57
2023/04/09 07:01:36;;;;;;;17.02;7.82;;;;;;;10.95;61.89;101208.22;10208845;29;20051;-58
2023/04/09 07:06:39;;;;;;;19.92;10.95;;;;;;;11.13;61.60;101208.19;10196277;29;20067;-63
2023/04/09 07:11:40;;;;;;;20.05;9.52;;;;;;;11.27;61.27;101206.75;10190337;29;20051;-63
2023/04/09 07:16:43;;;;;;;16.77;9.05;;;;;;;11.43;61.39;101211.38;10188051;29;20392;-63
2023/04/09 07:21:44;;;;;;;16.77;9.23;;;;;;;11.50;61.25;101207.88;10186760;29;20063;-62
2023/04/09 07:26:45;;;;;;;17.95;9.32;;;;;;;11.54;61.00;101207.56;10182842;29;20048;-61
2023/04/09 07:31:47;;;;;;;18.00;9.40;;;;;;;11.70;60.77;101207.63;10189594;28;20048;-62
2023/04/09 07:36:49;;;;;;;17.42;8.88;;;;;;;11.83;60.96;101208.03;10189737;29;20056;-63
2023/04/09 07:41:50;;;;;;;18.02;9.07;;;;;;;12.00;60.55;101214.31;10186190;29;20076;-62
2023/04/09 07:46:51;;;;;;;18.38;10.07;;;;;;;12.21;60.06;101203.09;10184865;29;20052;-63
2023/04/09 07:51:53;;;;;;;17.25;9.40;;;;;;;12.48;59.79;101210.06;10184517;29;20585;-63
2023/04/09 07:56:55;;;;;;;18.20;9.80;;;;;;;12.64;59.29;101213.78;10185489;29;20079;-63
2023/04/09 08:01:56;;;;;;;19.63;9.63;;;;;;;12.88;59.04;101215.63;10179967;29;20080;-65
2023/04/09 08:06:58;;;;;;;22.02;11.32;;;;;;;13.03;58.80;101224.72;10181982;29;20059;-67
2023/04/09 08:12:00;;;;;;;16.90;10.25;;;;;;;13.27;58.27;101221.13;10181568;29;20056;-68
2023/04/09 08:17:01;;;;;;;18.67;11.80;;;;;;;13.56;56.97;101229.69;10179968;29;20064;-66
2023/04/09 08:22:03;;;;;;;15.98;9.55;;;;;;;13.71;57.11;101229.81;10167430;29;20079;-67
2023/04/09 08:27:04;;;;;;;17.60;10.60;;;;;;;13.81;56.55;101228.59;10185967;29;20760;-66
2023/04/09 08:32:05;;;;;;;18.38;10.63;;;;;;;13.98;56.14;101220.38;10186181;29;20055;-65
2023/04/09 08:37:07;;;;;;;19.58;11.85;;;;;;;14.04;55.72;101227.78;10176293;29;20119;-68
2023/04/09 08:42:11;;;;;;;16.42;10.60;;;;;;;14.12;55.48;101230.47;10179173;29;20094;-68
2023/04/09 08:47:13;;;;;;;19.45;12.38;;;;;;;14.37;54.18;101236.56;10176605;29;20447;-68
2023/04/09 08:52:16;;;;;;;15.60;10.38;;;;;;;14.61;53.62;101234.72;10179422;29;20056;-65
2023/04/09 08:57:17;;;;;;;16.33;10.07;;;;;;;14.67;53.53;101236.72;10182971;29;20078;-69
2023/04/09 09:02:19;;;;;;;18.30;10.18;;;;;;;14.74;53.15;101234.97;10179724;29;20111;-68
2023/04/09 09:07:20;;;;;;;15.57;10.32;;;;;;;14.51;53.17;101240.34;10181484;29;20080;-68
2023/04/09 09:12:30;;;;;;;16.98;10.48;;;;;;;14.66;52.46;101235.03;10184032;29;20048;-68
2023/04/09 09:17:33;;;;;;;19.90;10.40;;;;;;;14.66;52.64;101232.34;10182005;29;20047;-65
2023/04/09 09:22:49;;;;;;;18.67;11.18;;;;;;;14.93;51.86;101228.22;10171195;29;20140;-68
2023/04/09 09:28:06;;;;;;;16.92;10.52;;;;;;;14.86;52.09;101235.38;10180334;29;20048;-68
2023/04/09 09:33:09;;;;;;;15.65;10.00;;;;;;;15.02;51.66;101239.81;10184746;29;20060;-69
2023/04/09 09:38:11;;;;;;;13.60;9.52;;;;;;;14.85;51.72;101233.72;10158446;29;20060;-67
2023/04/09 09:43:13;;;;;;;15.98;9.45;;;;;;;14.87;51.33;101235.19;10178569;29;20052;-67
2023/04/09 09:48:15;;;;;;;15.85;10.02;;;;;;;14.95;51.09;101228.88;10180417;29;20056;-69
2023/04/09 09:53:21;;;;;;;12.10;8.43;;;;;;;15.06;50.16;101227.59;10184320;29;20135;-67
2023/04/09 09:58:30;;;;;;;13.00;8.10;;;;;;;15.21;49.66;101222.19;10184100;29;20122;-68
2023/04/09 10:03:36;;;;;;;12.10;8.35;;;;;;;15.24;50.19;101225.38;10171846;29;20496;-68
2023/04/09 10:08:41;;;;;;;12.07;8.18;;;;;;;15.50;49.14;101218.69;10170842;29;20080;-67
2023/04/09 10:13:48;;;;;;;16.23;8.68;;;;;;;15.32;49.27;101218.19;10174625;29;20127;-68
2023/04/09 10:18:50;;;;;;;13.65;9.40;;;;;;;15.36;49.06;101216.78;10181200;29;20050;-65
2023/04/09 10:23:52;;;;;;;12.32;7.80;;;;;;;15.39;48.35;101213.72;10177691;29;20052;-67
2023/04/09 10:29:07;;;;;;;11.55;8.07;;;;;;;15.47;48.21;101208.19;10179973;29;20062;-69
2023/04/09 10:34:09;;;;;;;10.95;7.50;;;;;;;15.74;48.03;101200.44;10174465;29;20064;-68
2023/04/09 10:39:14;;;;;;;14.38;8.13;;;;;;;16.00;47.33;101195.34;10177122;29;20059;-68
2023/04/09 10:44:25;;;;;;;11.93;7.90;;;;;;;16.37;46.68;101198.88;10177303;29;20146;-68
2023/04/09 10:49:26;;;;;;;9.07;6.75;;;;;;;16.63;45.88;101194.75;10160641;29;20059;-67
2023/04/09 10:54:34;;;;;;;11.43;7.10;;;;;;;16.85;45.01;101188.28;10177515;29;20146;-68
2023/04/09 10:59:36;;;;;;;;;;;;;;;16.83;46.72;101186.81;10180325;29;20055;-65
2023/04/09 11:05:01;;;;;;;11.43;7.85;;;;;;;16.93;45.43;101186.47;10244564;23;19922;-68
2023/04/09 11:10:03;;;;;;;9.43;6.43;;;;;;;17.13;44.98;101181.16;10221344;28;20134;-66
2023/04/09 11:15:04;;;;;;;7.57;5.53;;;;;;;17.15;44.14;101179.91;10225887;28;20143;-69
2023/04/09 11:20:06;;;;;;;7.05;5.22;;;;;;;17.25;43.60;101183.13;10224461;28;20141;-66
2023/04/09 11:25:08;;;;;;;11.88;6.35;;;;;;;17.03;43.89;101174.19;10220625;28;20570;-68
2023/04/09 11:30:09;;;;;;;9.35;6.55;;;;;;;17.08;43.82;101179.06;10222460;28;20524;-67
2023/04/09 11:35:13;;;;;;;9.93;7.00;;;;;;;17.34;43.14;101177.53;10221488;28;20126;-66
2023/04/09 11:40:25;;;;;;;7.97;5.88;;;;;;;17.69;42.07;101164.72;10219614;28;20079;-69
2023/04/09 11:45:28;;;;;;;7.55;6.35;;;;;;;17.89;41.69;101167.56;10218451;28;20816;-66
2023/04/09 11:50:30;;;;;;;8.07;5.97;;;;;;;18.14;41.66;101175.16;10215419;28;20059;-65
2023/04/09 11:55:32;;;;;;;10.57;6.78;;;;;;;18.31;41.32;101165.56;10224319;28;20507;-66
2023/04/09 12:00:33;;;;;;;8.00;5.65;;;;;;;18.41;40.90;101173.34;10205589;28;20581;-66
2023/04/09 12:05:35;;;;;;;10.23;6.65;;;;;;;18.76;40.27;101163.09;10224073;28;20430;-64
2023/04/09 12:10:38;;;;;;;7.75;5.95;;;;;;;19.15;39.78;101161.38;10209580;28;20514;-64
2023/04/09 12:15:42;;;;;;;8.80;5.50;;;;;;;19.19;39.02;101161.78;10220240;28;20707;-65
2023/04/09 12:20:46;;;;;;;6.93;5.57;;;;;;;19.28;38.27;101155.06;10220153;28;20055;-64
2023/04/09 12:25:47;;;;;;;6.90;5.38;;;;;;;19.24;38.47;101151.09;10216104;28;20295;-64
2023/04/09 12:30:49;;;;;;;7.00;4.97;;;;;;;19.04;38.40;101153.88;10216016;28;20131;-65
2023/04/09 12:35:51;;;;;;;8.40;5.82;;;;;;;18.85;38.63;101143.84;10218421;28;20051;-64
2023/04/09 12:40:52;;;;;;;8.40;6.70;;;;;;;18.99;38.49;101142.75;10224067;28;20185;-64
2023/04/09 12:45:54;;;;;;;7.38;5.55;;;;;;;18.94;38.29;101150.75;10213438;28;20676;-65
2023/04/09 12:50:55;;;;;;;10.15;5.65;;;;;;;18.87;38.48;101134.41;10220357;28;20062;-65
2023/04/09 12:55:57;;;;;;;8.18;5.90;;;;;;;18.57;38.50;101131.25;10224283;28;20141;-64
2023/04/09 13:00:58;;;;;;;8.88;5.57;;;;;;;18.58;38.16;101122.88;10218835;28;20115;-64
2023/04/09 13:06:00;;;;;;;8.55;5.80;;;;;;;19.17;36.93;101109.38;10221242;28;20078;-63
2023/04/09 13:11:01;;;;;;;6.88;4.22;;;;;;;19.39;36.07;101113.53;10222670;28;20055;-64
2023/04/09 13:16:03;;;;;;;5.80;4.47;;;;;;;19.30;35.33;101103.06;10191515;29;20050;-64
2023/04/09 13:21:04;;;;;;;5.43;3.97;;;;;;;19.40;34.94;101098.81;10220478;28;20087;-64
2023/04/09 13:26:06;;;;;;;7.43;4.05;;;;;;;18.95;35.47;101103.38;10221006;28;20145;-67
2023/04/09 13:31:07;;;;;;;6.75;4.50;;;;;;;18.94;34.76;101099.81;10204235;28;20106;-66
2023/04/09 13:36:09;;;;;;;4.40;3.80;;;;;;;18.86;34.81;101086.41;10216074;28;20487;-66
2023/04/09 13:41:10;;;;;;;5.10;3.92;;;;;;;18.94;34.64;101094.34;10223705;28;20055;-64
2023/04/09 13:46:12;;;;;;;6.18;4.03;;;;;;;18.98;34.64;101084.72;10225524;28;20071;-65
2023/04/09 13:51:13;;;;;;;5.60;3.90;;;;;;;19.18;34.41;101073.75;10220258;28;20137;-65
2023/04/09 13:56:15;;;;;;;4.53;3.70;;;;;;;19.58;33.76;101065.38;10217054;28;20125;-66
2023/04/09 14:01:17;;;;;;;5.30;3.60;;;;;;;19.73;33.78;101054.22;10207079;28;20082;-65
2023/04/09 14:06:18;;;;;;;3.60;3.10;;;;;;;19.55;33.71;101057.66;10223753;28;20503;-64
2023/04/09 14:11:20;;;;;;;5.78;4.07;;;;;;;19.59;33.36;101049.88;10254241;28;20067;-62
2023/04/09 14:16:22;;;;;;;4.32;3.50;;;;;;;19.67;32.90;101044.16;10277394;28;20031;-64
2023/04/09 14:21:25;;;;;;;4.57;3.53;;;;;;;19.71;33.00;101039.97;10277994;28;20032;-64
2023/04/09 14:26:27;;;;;;;3.92;3.15;;;;;;;19.80;33.03;101040.53;10276005;28;20129;-64
2023/04/09 14:31:29;;;;;;;4.88;3.75;;;;;;;19.71;32.78;101044.56;10260143;28;20981;-63
2023/04/09 14:36:31;;;;;;;4.25;3.33;;;;;;;19.58;32.73;101046.28;10270450;28;20059;-63
2023/04/09 14:41:33;;;;;;;4.35;3.50;;;;;;;19.46;32.64;101042.56;10275126;28;20058;-63
2023/04/09 14:46:35;;;;;;;4.60;3.47;;;;;;;19.31;32.83;101033.84;10277883;28;20081;-63
2023/04/09 14:51:36;;;;;;;4.78;3.75;;;;;;;19.83;32.15;101034.63;10275235;28;20051;-63
2023/04/09 14:56:38;;;;;;;4.35;3.58;;;;;;;20.92;30.85;101029.66;10273717;28;20051;-63
2023/04/09 15:01:39;;;;;;;4.00;3.47;;;;;;;21.14;30.65;101026.47;10274813;28;20320;-62
2023/04/09 15:06:41;;;;;;;3.78;3.35;;;;;;;21.05;30.91;101020.47;10275434;28;20062;-63
2023/04/09 15:11:42;;;;;;;4.20;3.05;;;;;;;21.37;30.46;101012.06;10275924;28;20043;-62
2023/04/09 15:16:44;;;;;;;5.10;3.28;;;;;;;21.75;30.30;101006.28;10273912;28;20070;-64
2023/04/09 15:21:45;;;;;;;3.42;2.90;;;;;;;22.64;29.65;101004.59;10276113;28;20031;-63
2023/04/09 15:26:46;;;;;;;3.13;2.83;;;;;;;22.95;29.07;101001.44;10262069;28;20051;-63
2023/04/09 15:31:51;;;;;;;3.90;3.00;;;;;;;22.77;29.01;100991.47;10271146;28;20027;-63
2023/04/09 15:36:53;;;;;;;2.70;2.17;;;;;;;22.31;29.21;100997.81;10269686;28;20052;-63
2023/04/09 15:41:57;;;;;;;3.38;2.88;;;;;;;21.89;29.33;101000.59;10272807;28;20051;-63
2023/04/09 15:46:59;;;;;;;3.67;3.20;;;;;;;21.43;29.98;100993.91;10248404;28;20054;-62
2023/04/09 15:52:00;;;;;;;2.22;1.88;;;;;;;20.91;30.74;100992.47;10268731;28;20035;-64
2023/04/09 15:57:03;;;;;;;2.78;1.63;;;;;;;20.47;30.50;100993.56;10273419;28;20055;-64
2023/04/09 16:02:04;;;;;;;2.15;1.65;;;;;;;20.28;30.41;100990.81;10272900;28;20059;-62
2023/04/09 16:07:06;;;;;;;2.13;1.50;;;;;;;20.10;30.16;100997.06;10273827;28;20055;-62
2023/04/09 16:12:08;;;;;;;3.33;2.30;;;;;;;20.04;30.48;100984.28;10276931;28;20058;-63
2023/04/09 16:17:09;;;;;;;2.22;1.70;;;;;;;20.33;30.03;100981.94;10262370;28;20102;-63
2023/04/09 16:22:11;;;;;;;2.25;1.73;;;;;;;20.54;30.50;100980.69;10254615;28;20103;-63
2023/04/09 16:27:13;;;;;;;2.00;1.38;;;;;;;20.76;29.83;100973.72;10273566;28;20082;-63
2023/04/09 16:32:14;;;;;;;1.55;1.20;;;;;;;21.03;29.04;100978.88;10278070;28;20032;-64
2023/04/09 16:37:16;;;;;;;3.08;1.33;;;;;;;21.10;28.66;100971.41;10276649;28;20031;-63
2023/04/09 16:42:17;;;;;;;1.48;1.33;;;;;;;21.07;28.29;100968.28;10276717;28;20396;-63
2023/04/09 16:47:19;;;;;;;2.17;1.73;;;;;;;21.42;28.58;100973.91;10273382;28;20035;-64
2023/04/09 16:52:20;;;;;;;4.63;1.48;;;;;;;21.58;28.43;100976.03;10276738;28;20070;-64
2023/04/09 16:57:21;;;;;;;2.40;1.85;;;;;;;21.52;28.81;100970.63;10269100;28;20036;-64
2023/04/09 17:02:23;;;;;;;2.45;1.42;;;;;;;21.38;28.82;100976.25;10252397;28;20043;-63
2023/04/09 17:07:25;;;;;;;1.92;1.50;;;;;;;21.14;28.60;100961.66;10228635;29;20056;-61
2023/04/09 17:12:26;;;;;;;2.13;1.48;;;;;;;20.92;29.07;100957.78;10206106;29;20051;-60
2023/04/09 17:17:28;;;;;;;2.13;1.55;;;;;;;20.65;29.29;100957.25;10206648;29;20406;-59
2023/04/09 17:22:29;;;;;;;2.63;1.65;;;;;;;20.45;29.85;100965.63;10205099;29;20058;-59
2023/04/09 17:27:30;;;;;;;1.80;1.60;;;;;;;20.11;30.07;100968.69;10203606;29;20063;-59
2023/04/09 17:32:32;;;;;;;4.07;1.85;;;;;;;19.74;30.21;100970.47;10195159;29;20031;-59
2023/04/09 17:37:33;;;;;;;2.25;1.92;;;;;;;19.43;30.58;100977.56;10220465;28;20092;-62
2023/04/09 17:42:35;;;;;;;2.63;1.40;;;;;;;19.11;31.24;100982.16;10226313;28;20031;-62
2023/04/09 17:47:37;;;;;;;3.28;1.38;;;;;;;18.72;31.52;100981.22;10225442;28;20068;-65
2023/04/09 17:52:39;;;;;;;2.35;1.73;;;;;;;18.37;31.84;100982.34;10226825;28;20036;-62
2023/04/09 17:57:41;;;;;;;3.45;1.95;;;;;;;18.02;32.75;100987.19;10229657;29;20036;-62
2023/04/09 18:02:43;;;;;;;6.65;2.67;;;;;;;17.71;32.68;100991.31;10226047;28;20039;-62
2023/04/09 18:07:45;;;;;;;3.70;2.17;;;;;;;17.41;33.26;100999.00;10228376;28;20119;-62
2023/04/09 18:12:46;;;;;;;2.83;2.35;;;;;;;17.11;34.23;100996.63;10226826;28;20039;-62
2023/04/09 18:17:48;;;;;;;3.10;2.33;;;;;;;16.82;34.97;101006.75;10226039;28;20044;-63
2023/04/09 18:22:49;;;;;;;5.53;3.63;;;;;;;16.51;36.04;101007.16;10176927;28;20547;-64
2023/04/09 18:27:51;;;;;;;7.10;4.90;;;;;;;16.24;36.68;101006.13;10176036;29;20134;-66
2023/04/09 18:32:52;;;;;;;7.05;4.65;;;;;;;15.98;37.58;101015.72;10168172;29;20127;-66
2023/04/09 18:37:54;;;;;;;4.82;4.05;;;;;;;15.70;38.67;101020.19;10174006;29;20061;-66
2023/04/09 18:42:55;;;;;;;7.15;4.85;;;;;;;15.39;39.43;101018.66;10167462;29;20064;-67
2023/04/09 18:47:57;;;;;;;9.55;4.50;;;;;;;15.18;40.11;101024.84;10176584;29;20091;-67
2023/04/09 18:52:58;;;;;;;8.48;3.47;;;;;;;14.93;40.86;101024.31;10200734;29;20067;-66
2023/04/09 18:58:00;;;;;;;9.10;4.13;;;;;;;14.66;41.54;101029.38;10179362;29;20059;-67
2023/04/09 19:03:03;;;;;;;8.02;3.63;;;;;;;14.42;42.34;101036.69;10170231;29;20389;-63
2023/04/09 19:08:05;;;;;;;5.00;3.75;;;;;;;14.20;43.40;101026.78;10191305;29;20068;-63
2023/04/09 19:13:07;;;;;;;6.18;3.83;;;;;;;13.94;43.93;101032.56;10182391;29;20052;-66
2023/04/09 19:18:08;;;;;;;7.72;3.80;;;;;;;13.70;44.38;101039.81;10184719;29;20491;-67
2023/04/09 19:23:09;;;;;;;6.22;3.67;;;;;;;13.43;45.20;101039.31;10161606;29;20048;-68
2023/04/09 19:28:11;;;;;;;4.13;3.33;;;;;;;13.22;45.08;101041.78;10177719;29;20541;-69
2023/04/09 19:33:12;;;;;;;7.47;3.65;;;;;;;13.01;45.88;101040.53;10178555;29;20143;-66
2023/04/09 19:38:15;;;;;;;5.95;4.18;;;;;;;12.82;45.80;101041.75;10178481;29;20613;-65
2023/04/09 19:43:16;;;;;;;7.25;4.90;;;;;;;12.63;46.69;101047.53;10179838;29;20130;-68
2023/04/09 19:48:18;;;;;;;9.65;5.40;;;;;;;12.47;47.18;101043.84;10191958;29;20051;-67
2023/04/09 19:53:19;;;;;;;6.57;4.80;;;;;;;12.34;47.46;101048.09;10191760;29;20107;-65
2023/04/09 19:58:21;;;;;;;9.45;4.40;;;;;;;12.17;47.97;101036.50;10195927;29;20052;-68
2023/04/09 20:03:22;;;;;;;7.80;4.20;;;;;;;11.82;49.43;101039.31;10196301;29;20448;-69
2023/04/09 20:08:23;;;;;;;7.65;5.22;;;;;;;11.66;49.62;101042.84;10170699;29;20048;-68
2023/04/09 20:13:25;;;;;;;7.43;4.40;;;;;;;11.59;49.34;101039.13;10165067;29;20449;-66
2023/04/09 20:18:27;;;;;;;8.70;5.05;;;;;;;11.45;50.19;101037.06;10187483;29;20082;-67
2023/04/09 20:23:29;;;;;;;9.05;5.50;;;;;;;11.41;50.31;101046.47;10178247;29;20058;-67
2023/04/09 20:28:30;;;;;;;9.65;5.65;;;;;;;11.26;50.65;101046.28;10181759;29;20082;-68
2023/04/09 20:33:32;;;;;;;8.85;5.97;;;;;;;11.15;51.15;101042.03;10174247;29;20052;-66
2023/04/09 20:38:34;;;;;;;9.35;5.75;;;;;;;10.87;51.86;101044.09;10182211;28;20259;-68
2023/04/09 20:43:37;;;;;;;10.65;5.97;;;;;;;10.68;52.55;101051.41;10177425;29;20111;-67
2023/04/09 20:48:38;;;;;;;11.50;7.07;;;;;;;10.69;52.23;101044.19;10163326;29;20055;-67
2023/04/09 20:53:40;;;;;;;9.73;5.28;;;;;;;10.58;52.56;101047.13;10174705;29;20078;-68
2023/04/09 20:58:41;;;;;;;11.43;7.15;;;;;;;10.47;52.93;101057.16;10163301;29;20052;-66
2023/04/09 21:03:43;;;;;;;13.48;7.00;;;;;;;10.38;53.20;101059.94;10171545;29;20067;-68
2023/04/09 21:08:44;;;;;;;10.25;6.38;;;;;;;10.29;53.42;101056.34;10180203;29;20155;-67
2023/04/09 21:13:46;;;;;;;9.43;5.43;;;;;;;10.22;53.59;101060.63;10177568;29;20444;-69
2023/04/09 21:18:56;;;;;;;8.95;6.43;;;;;;;10.14;53.83;101050.66;10175643;29;20056;-69
2023/04/09 21:23:57;;;;;;;10.82;6.30;;;;;;;9.99;54.16;101046.84;10157515;29;20048;-67
2023/04/09 21:28:58;;;;;;;9.55;5.55;;;;;;;9.78;54.90;101049.84;10179468;29;20052;-70
2023/04/09 21:34:00;;;;;;;10.48;6.18;;;;;;;9.71;54.44;101039.69;10180586;29;20147;-69
2023/04/09 21:39:02;;;;;;;9.13;5.88;;;;;;;9.65;54.72;101039.47;10169002;29;20055;-68
2023/04/09 21:44:07;;;;;;;8.38;5.85;;;;;;;9.55;54.95;101036.03;10186784;29;20060;-68
2023/04/09 21:49:08;;;;;;;9.10;6.22;;;;;;;9.40;55.34;101036.56;10172607;29;20064;-69
2023/04/09 21:54:10;;;;;;;13.50;7.15;;;;;;;9.42;55.27;101033.72;10171175;29;20410;-67
2023/04/09 21:59:11;;;;;;;10.38;5.57;;;;;;;9.21;55.82;101039.38;10183564;29;20570;-69
2023/04/09 22:04:12;;;;;;;7.38;5.05;;;;;;;9.15;55.86;101051.53;10181074;29;20059;-69
2023/04/09 22:09:14;;;;;;;12.73;5.75;;;;;;;9.20;55.55;101041.22;10176994;29;20056;-69
2023/04/09 22:14:16;;;;;;;8.75;5.18;;;;;;;9.09;56.28;101041.41;10181740;29;20127;-69
2023/04/09 22:19:18;;;;;;;9.32;5.80;;;;;;;8.98;56.53;101042.44;10180908;29;20147;-69
2023/04/09 22:24:25;;;;;;;10.52;5.72;;;;;;;8.98;56.58;101042.44;10178040;29;20515;-70
2023/04/09 22:29:28;;;;;;;11.13;5.60;;;;;;;8.86;56.72;101046.31;10174698;29;20322;-70
2023/04/09 22:34:29;;;;;;;8.80;4.72;;;;;;;8.76;56.73;101051.69;10178651;29;20139;-69
2023/04/09 22:39:30;;;;;;;11.98;6.32;;;;;;;8.74;57.04;101043.78;10177504;29;20107;-67
2023/04/09 22:44:32;;;;;;;9.07;5.85;;;;;;;8.65;56.63;101035.78;10175198;29;20533;-69
2023/04/09 22:49:33;;;;;;;8.80;5.15;;;;;;;8.56;56.80;101039.38;10176686;29;20211;-68
2023/04/09 22:54:36;;;;;;;8.77;5.53;;;;;;;8.44;57.66;101030.66;10174386;29;20052;-68
2023/04/09 22:59:38;;;;;;;8.77;5.72;;;;;;;8.41;57.56;101030.91;10183123;29;20052;-69
2023/04/09 23:04:41;;;;;;;9.25;5.65;;;;;;;8.27;57.85;101032.19;10173885;29;20403;-67
2023/04/09 23:09:44;;;;;;;11.10;5.97;;;;;;;8.12;58.20;101040.69;10183681;29;20048;-68
2023/04/09 23:14:45;;;;;;;8.35;5.15;;;;;;;8.05;57.93;101047.59;10186998;29;20095;-65
2023/04/09 23:19:51;;;;;;;9.20;5.68;;;;;;;7.98;58.25;101040.28;10182183;29;20062;-65
2023/04/09 23:24:52;;;;;;;10.32;5.07;;;;;;;8.00;57.66;101039.16;10191545;29;20488;-65
2023/04/09 23:29:55;;;;;;;8.27;5.00;;;;;;;8.01;58.31;101040.84;10185745;29;20060;-66
2023/04/09 23:34:57;;;;;;;9.90;5.40;;;;;;;7.95;58.51;101039.56;10182791;29;20055;-65
2023/04/09 23:39:59;;;;;;;7.85;4.38;;;;;;;7.90;58.31;101049.03;10184233;29;20139;-66
2023/04/09 23:45:04;;;;;;;8.60;5.35;;;;;;;7.73;58.83;101031.84;10174746;29;20079;-65
2023/04/09 23:50:07;;;;;;;7.47;5.00;;;;;;;7.55;59.08;101037.03;10186733;29;20083;-66
2023/04/09 23:55:09;;;;;;;8.02;5.13;;;;;;;7.56;58.55;101036.03;10183162;29;20067;-65
